sensor_id;sensor_type;location;lat;lon;timestamp;P1;durP1;ratioP1;P2;durP2;ratioP2
45909;SDS011;31622;55.416;37.840;2023-04-03T00:00:56;7.45;;;3.88;;
45909;SDS011;31622;55.416;37.840;2023-04-03T00:03:22;8.35;;;4.05;;
45909;SDS011;31622;55.416;37.840;2023-04-03T00:05:48;8.48;;;3.67;;
45909;SDS011;31622;55.416;37.840;2023-04-03T00:08:14;7.55;;;4.63;;
45909;SDS011;31622;55.416;37.840;2023-04-03T00:10:40;9.90;;;4.28;;
45909;SDS011;31622;55.416;37.840;2023-04-03T00:13:06;6.55;;;3.72;;
45909;SDS011;31622;55.416;37.840;2023-04-03T00:15:32;6.60;;;3.97;;
45909;SDS011;31622;55.416;37.840;2023-04-03T00:17:58;7.00;;;3.60;;
45909;SDS011;31622;55.416;37.840;2023-04-03T00:20:26;6.72;;;3.28;;
45909;SDS011;31622;55.416;37.840;2023-04-03T00:22:52;6.78;;;3.70;;
45909;SDS011;31622;55.416;37.840;2023-04-03T00:25:18;6.85;;;3.55;;
45909;SDS011;31622;55.416;37.840;2023-04-03T00:27:44;7.28;;;3.63;;
45909;SDS011;31622;55.416;37.840;2023-04-03T00:30:11;6.88;;;3.35;;
45909;SDS011;31622;55.416;37.840;2023-04-03T00:32:39;5.75;;;3.63;;
45909;SDS011;31622;55.416;37.840;2023-04-03T00:35:05;6.57;;;3.60;;
45909;SDS011;31622;55.416;37.840;2023-04-03T00:37:31;6.00;;;3.58;;
45909;SDS011;31622;55.416;37.840;2023-04-03T00:39:57;6.90;;;3.22;;
45909;SDS011;31622;55.416;37.840;2023-04-03T00:42:23;5.95;;;3.10;;
45909;SDS011;31622;55.416;37.840;2023-04-03T00:47:16;7.20;;;3.70;;
45909;SDS011;31622;55.416;37.840;2023-04-03T00:49:42;6.93;;;3.67;;
45909;SDS011;31622;55.416;37.840;2023-04-03T00:52:08;5.75;;;3.10;;
45909;SDS011;31622;55.416;37.840;2023-04-03T00:54:37;8.98;;;3.45;;
45909;SDS011;31622;55.416;37.840;2023-04-03T00:57:04;6.47;;;3.15;;
45909;SDS011;31622;55.416;37.840;2023-04-03T00:59:32;5.80;;;3.38;;
45909;SDS011;31622;55.416;37.840;2023-04-03T01:02:00;4.65;;;3.35;;
45909;SDS011;31622;55.416;37.840;2023-04-03T01:04:27;6.20;;;3.28;;
45909;SDS011;31622;55.416;37.840;2023-04-03T01:06:59;5.13;;;3.05;;
45909;SDS011;31622;55.416;37.840;2023-04-03T01:09:28;5.63;;;2.92;;
45909;SDS011;31622;55.416;37.840;2023-04-03T01:11:54;6.05;;;2.80;;
45909;SDS011;31622;55.416;37.840;2023-04-03T01:14:20;6.43;;;3.30;;
45909;SDS011;31622;55.416;37.840;2023-04-03T01:16:53;5.22;;;2.90;;
45909;SDS011;31622;55.416;37.840;2023-04-03T01:19:19;6.28;;;3.15;;
45909;SDS011;31622;55.416;37.840;2023-04-03T01:24:35;5.40;;;3.10;;
45909;SDS011;31622;55.416;37.840;2023-04-03T01:27:06;5.07;;;3.15;;
45909;SDS011;31622;55.416;37.840;2023-04-03T01:29:32;4.50;;;2.92;;
45909;SDS011;31622;55.416;37.840;2023-04-03T01:31:59;7.00;;;2.90;;
45909;SDS011;31622;55.416;37.840;2023-04-03T01:34:27;7.57;;;3.13;;
45909;SDS011;31622;55.416;37.840;2023-04-03T01:36:54;5.40;;;2.70;;
45909;SDS011;31622;55.416;37.840;2023-04-03T01:39:21;5.93;;;2.88;;
45909;SDS011;31622;55.416;37.840;2023-04-03T01:41:47;4.90;;;2.90;;
45909;SDS011;31622;55.416;37.840;2023-04-03T01:44:20;6.30;;;3.33;;
45909;SDS011;31622;55.416;37.840;2023-04-03T01:46:46;8.20;;;3.20;;
45909;SDS011;31622;55.416;37.840;2023-04-03T01:49:11;7.25;;;3.22;;
45909;SDS011;31622;55.416;37.840;2023-04-03T01:51:37;4.20;;;2.65;;
45909;SDS011;31622;55.416;37.840;2023-04-03T01:54:03;4.70;;;2.88;;
45909;SDS011;31622;55.416;37.840;2023-04-03T01:56:29;4.80;;;2.83;;
45909;SDS011;31622;55.416;37.840;2023-04-03T01:58:55;6.65;;;3.13;;
45909;SDS011;31622;55.416;37.840;2023-04-03T02:01:21;5.03;;;2.72;;
45909;SDS011;31622;55.416;37.840;2023-04-03T02:03:47;6.68;;;2.88;;
45909;SDS011;31622;55.416;37.840;2023-04-03T02:06:13;5.80;;;3.70;;
45909;SDS011;31622;55.416;37.840;2023-04-03T02:08:38;3.83;;;2.63;;
45909;SDS011;31622;55.416;37.840;2023-04-03T02:11:05;5.05;;;2.63;;
45909;SDS011;31622;55.416;37.840;2023-04-03T02:13:32;4.70;;;3.28;;
45909;SDS011;31622;55.416;37.840;2023-04-03T02:15:58;5.95;;;3.30;;
45909;SDS011;31622;55.416;37.840;2023-04-03T02:18:24;6.50;;;3.30;;
45909;SDS011;31622;55.416;37.840;2023-04-03T02:20:50;6.78;;;3.15;;
45909;SDS011;31622;55.416;37.840;2023-04-03T02:23:16;5.22;;;3.28;;
45909;SDS011;31622;55.416;37.840;2023-04-03T02:25:41;4.82;;;2.80;;
45909;SDS011;31622;55.416;37.840;2023-04-03T02:28:07;4.97;;;2.60;;
45909;SDS011;31622;55.416;37.840;2023-04-03T02:30:33;6.20;;;2.90;;
45909;SDS011;31622;55.416;37.840;2023-04-03T02:32:58;4.65;;;3.10;;
45909;SDS011;31622;55.416;37.840;2023-04-03T02:35:25;6.28;;;2.85;;
45909;SDS011;31622;55.416;37.840;2023-04-03T02:37:52;5.50;;;3.08;;
45909;SDS011;31622;55.416;37.840;2023-04-03T02:40:19;5.68;;;3.55;;
45909;SDS011;31622;55.416;37.840;2023-04-03T02:42:45;5.40;;;3.30;;
45909;SDS011;31622;55.416;37.840;2023-04-03T02:45:11;5.60;;;2.70;;
45909;SDS011;31622;55.416;37.840;2023-04-03T02:47:37;6.63;;;3.45;;
45909;SDS011;31622;55.416;37.840;2023-04-03T02:50:02;5.38;;;3.10;;
45909;SDS011;31622;55.416;37.840;2023-04-03T02:52:30;4.97;;;2.88;;
45909;SDS011;31622;55.416;37.840;2023-04-03T02:54:57;5.80;;;2.78;;
45909;SDS011;31622;55.416;37.840;2023-04-03T02:57:22;4.40;;;3.10;;
45909;SDS011;31622;55.416;37.840;2023-04-03T02:59:48;5.38;;;2.88;;
45909;SDS011;31622;55.416;37.840;2023-04-03T03:02:14;6.88;;;3.00;;
45909;SDS011;31622;55.416;37.840;2023-04-03T03:04:40;6.68;;;2.80;;
45909;SDS011;31622;55.416;37.840;2023-04-03T03:07:06;5.72;;;2.95;;
45909;SDS011;31622;55.416;37.840;2023-04-03T03:09:32;6.18;;;3.05;;
45909;SDS011;31622;55.416;37.840;2023-04-03T03:11:58;5.18;;;3.30;;
45909;SDS011;31622;55.416;37.840;2023-04-03T03:14:23;7.60;;;3.10;;
45909;SDS011;31622;55.416;37.840;2023-04-03T03:16:49;5.13;;;2.42;;
45909;SDS011;31622;55.416;37.840;2023-04-03T03:19:15;6.72;;;3.55;;
45909;SDS011;31622;55.416;37.840;2023-04-03T03:21:41;7.20;;;3.13;;
45909;SDS011;31622;55.416;37.840;2023-04-03T03:24:06;7.50;;;2.72;;
45909;SDS011;31622;55.416;37.840;2023-04-03T03:26:32;7.50;;;3.30;;
45909;SDS011;31622;55.416;37.840;2023-04-03T03:28:58;5.25;;;2.70;;
45909;SDS011;31622;55.416;37.840;2023-04-03T03:31:25;7.40;;;3.65;;
45909;SDS011;31622;55.416;37.840;2023-04-03T03:33:51;6.28;;;3.15;;
45909;SDS011;31622;55.416;37.840;2023-04-03T03:36:17;7.85;;;3.00;;
45909;SDS011;31622;55.416;37.840;2023-04-03T03:38:43;4.95;;;2.88;;
45909;SDS011;31622;55.416;37.840;2023-04-03T03:41:09;5.00;;;3.20;;
45909;SDS011;31622;55.416;37.840;2023-04-03T03:43:35;5.22;;;2.95;;
45909;SDS011;31622;55.416;37.840;2023-04-03T03:46:03;4.80;;;2.70;;
45909;SDS011;31622;55.416;37.840;2023-04-03T03:48:29;5.70;;;3.15;;
45909;SDS011;31622;55.416;37.840;2023-04-03T03:50:55;5.15;;;3.10;;
45909;SDS011;31622;55.416;37.840;2023-04-03T03:53:24;7.32;;;3.15;;
45909;SDS011;31622;55.416;37.840;2023-04-03T03:55:53;4.40;;;2.75;;
45909;SDS011;31622;55.416;37.840;2023-04-03T03:58:22;9.63;;;3.47;;
45909;SDS011;31622;55.416;37.840;2023-04-03T04:00:47;6.28;;;2.50;;
45909;SDS011;31622;55.416;37.840;2023-04-03T04:03:13;4.30;;;2.67;;
45909;SDS011;31622;55.416;37.840;2023-04-03T04:05:40;5.57;;;2.72;;
45909;SDS011;31622;55.416;37.840;2023-04-03T04:08:06;6.60;;;2.78;;
45909;SDS011;31622;55.416;37.840;2023-04-03T04:10:32;4.55;;;2.92;;
45909;SDS011;31622;55.416;37.840;2023-04-03T04:12:59;7.50;;;2.70;;
45909;SDS011;31622;55.416;37.840;2023-04-03T04:15:27;6.55;;;2.85;;
45909;SDS011;31622;55.416;37.840;2023-04-03T04:17:53;5.13;;;2.88;;
45909;SDS011;31622;55.416;37.840;2023-04-03T04:20:21;4.85;;;2.75;;
45909;SDS011;31622;55.416;37.840;2023-04-03T04:22:48;5.20;;;3.22;;
45909;SDS011;31622;55.416;37.840;2023-04-03T04:25:14;7.03;;;3.22;;
45909;SDS011;31622;55.416;37.840;2023-04-03T04:27:41;7.38;;;3.25;;
45909;SDS011;31622;55.416;37.840;2023-04-03T04:30:07;7.65;;;3.03;;
45909;SDS011;31622;55.416;37.840;2023-04-03T04:32:34;4.25;;;2.20;;
45909;SDS011;31622;55.416;37.840;2023-04-03T04:35:00;7.68;;;2.92;;
45909;SDS011;31622;55.416;37.840;2023-04-03T04:37:27;5.38;;;2.75;;
45909;SDS011;31622;55.416;37.840;2023-04-03T04:39:53;4.72;;;2.80;;
45909;SDS011;31622;55.416;37.840;2023-04-03T04:42:19;7.35;;;2.67;;
45909;SDS011;31622;55.416;37.840;2023-04-03T04:44:47;7.10;;;3.33;;
45909;SDS011;31622;55.416;37.840;2023-04-03T04:47:14;6.35;;;2.90;;
45909;SDS011;31622;55.416;37.840;2023-04-03T04:49:40;6.53;;;3.30;;
45909;SDS011;31622;55.416;37.840;2023-04-03T04:52:07;5.57;;;3.15;;
45909;SDS011;31622;55.416;37.840;2023-04-03T04:54:33;5.40;;;2.45;;
45909;SDS011;31622;55.416;37.840;2023-04-03T04:56:59;9.48;;;2.95;;
45909;SDS011;31622;55.416;37.840;2023-04-03T04:59:26;5.38;;;2.85;;
45909;SDS011;31622;55.416;37.840;2023-04-03T05:01:54;5.05;;;2.58;;
45909;SDS011;31622;55.416;37.840;2023-04-03T05:04:20;4.78;;;2.65;;
45909;SDS011;31622;55.416;37.840;2023-04-03T05:06:50;6.07;;;2.45;;
45909;SDS011;31622;55.416;37.840;2023-04-03T05:09:20;5.60;;;2.58;;
45909;SDS011;31622;55.416;37.840;2023-04-03T05:11:47;5.88;;;2.78;;
45909;SDS011;31622;55.416;37.840;2023-04-03T05:14:15;4.72;;;2.47;;
45909;SDS011;31622;55.416;37.840;2023-04-03T05:16:41;7.13;;;2.90;;
45909;SDS011;31622;55.416;37.840;2023-04-03T05:19:07;6.35;;;2.70;;
45909;SDS011;31622;55.416;37.840;2023-04-03T05:21:34;4.78;;;2.65;;
45909;SDS011;31622;55.416;37.840;2023-04-03T05:24:04;5.00;;;2.17;;
45909;SDS011;31622;55.416;37.840;2023-04-03T05:26:36;6.32;;;2.42;;
45909;SDS011;31622;55.416;37.840;2023-04-03T05:29:02;4.25;;;2.75;;
45909;SDS011;31622;55.416;37.840;2023-04-03T05:31:29;6.07;;;2.70;;
45909;SDS011;31622;55.416;37.840;2023-04-03T05:33:55;6.65;;;2.30;;
45909;SDS011;31622;55.416;37.840;2023-04-03T05:36:21;5.65;;;2.70;;
45909;SDS011;31622;55.416;37.840;2023-04-03T05:38:52;4.70;;;2.83;;
45909;SDS011;31622;55.416;37.840;2023-04-03T05:41:18;6.32;;;3.00;;
45909;SDS011;31622;55.416;37.840;2023-04-03T05:43:46;5.28;;;2.47;;
45909;SDS011;31622;55.416;37.840;2023-04-03T05:46:14;4.47;;;3.00;;
45909;SDS011;31622;55.416;37.840;2023-04-03T05:48:43;9.68;;;3.13;;
45909;SDS011;31622;55.416;37.840;2023-04-03T05:51:24;5.65;;;2.80;;
45909;SDS011;31622;55.416;37.840;2023-04-03T05:53:59;5.50;;;2.55;;
45909;SDS011;31622;55.416;37.840;2023-04-03T05:56:38;3.85;;;2.33;;
45909;SDS011;31622;55.416;37.840;2023-04-03T05:59:04;5.10;;;2.72;;
45909;SDS011;31622;55.416;37.840;2023-04-03T06:01:29;5.05;;;2.70;;
45909;SDS011;31622;55.416;37.840;2023-04-03T06:03:56;6.05;;;2.80;;
45909;SDS011;31622;55.416;37.840;2023-04-03T06:06:24;6.10;;;2.63;;
45909;SDS011;31622;55.416;37.840;2023-04-03T06:08:49;5.75;;;2.85;;
45909;SDS011;31622;55.416;37.840;2023-04-03T06:11:15;5.65;;;3.13;;
45909;SDS011;31622;55.416;37.840;2023-04-03T06:13:41;6.88;;;2.83;;
45909;SDS011;31622;55.416;37.840;2023-04-03T06:16:09;3.95;;;2.45;;
45909;SDS011;31622;55.416;37.840;2023-04-03T06:18:39;5.00;;;2.90;;
45909;SDS011;31622;55.416;37.840;2023-04-03T06:21:05;5.70;;;2.70;;
45909;SDS011;31622;55.416;37.840;2023-04-03T06:23:32;8.80;;;3.38;;
45909;SDS011;31622;55.416;37.840;2023-04-03T06:25:58;4.35;;;2.58;;
45909;SDS011;31622;55.416;37.840;2023-04-03T06:28:24;5.40;;;3.00;;
45909;SDS011;31622;55.416;37.840;2023-04-03T06:30:50;5.53;;;2.65;;
45909;SDS011;31622;55.416;37.840;2023-04-03T06:33:16;5.80;;;2.80;;
45909;SDS011;31622;55.416;37.840;2023-04-03T06:35:41;7.38;;;2.72;;
45909;SDS011;31622;55.416;37.840;2023-04-03T06:38:07;12.00;;;3.20;;
45909;SDS011;31622;55.416;37.840;2023-04-03T06:40:34;8.05;;;2.92;;
45909;SDS011;31622;55.416;37.840;2023-04-03T06:43:00;5.50;;;2.78;;
45909;SDS011;31622;55.416;37.840;2023-04-03T06:45:26;4.63;;;2.83;;
45909;SDS011;31622;55.416;37.840;2023-04-03T06:47:52;8.45;;;3.03;;
45909;SDS011;31622;55.416;37.840;2023-04-03T06:50:18;6.45;;;3.30;;
45909;SDS011;31622;55.416;37.840;2023-04-03T06:52:44;5.80;;;3.30;;
45909;SDS011;31622;55.416;37.840;2023-04-03T06:55:10;6.30;;;3.00;;
45909;SDS011;31622;55.416;37.840;2023-04-03T06:57:36;7.07;;;3.15;;
45909;SDS011;31622;55.416;37.840;2023-04-03T07:00:03;6.28;;;2.60;;
45909;SDS011;31622;55.416;37.840;2023-04-03T07:02:30;4.82;;;2.22;;
45909;SDS011;31622;55.416;37.840;2023-04-03T07:04:56;5.22;;;2.85;;
45909;SDS011;31622;55.416;37.840;2023-04-03T07:07:21;7.88;;;3.45;;
45909;SDS011;31622;55.416;37.840;2023-04-03T07:09:47;6.28;;;3.40;;
45909;SDS011;31622;55.416;37.840;2023-04-03T07:12:13;3.58;;;2.38;;
45909;SDS011;31622;55.416;37.840;2023-04-03T07:14:39;4.68;;;2.75;;
45909;SDS011;31622;55.416;37.840;2023-04-03T07:17:04;5.53;;;2.95;;
45909;SDS011;31622;55.416;37.840;2023-04-03T07:19:30;5.80;;;3.13;;
45909;SDS011;31622;55.416;37.840;2023-04-03T07:21:56;9.35;;;3.30;;
45909;SDS011;31622;55.416;37.840;2023-04-03T07:24:22;7.55;;;3.60;;
45909;SDS011;31622;55.416;37.840;2023-04-03T07:26:51;12.02;;;5.13;;
45909;SDS011;31622;55.416;37.840;2023-04-03T07:29:17;8.10;;;3.88;;
45909;SDS011;31622;55.416;37.840;2023-04-03T07:31:43;10.38;;;5.55;;
45909;SDS011;31622;55.416;37.840;2023-04-03T07:34:10;12.10;;;5.80;;
45909;SDS011;31622;55.416;37.840;2023-04-03T07:36:36;10.15;;;5.85;;
45909;SDS011;31622;55.416;37.840;2023-04-03T07:39:02;13.13;;;5.65;;
45909;SDS011;31622;55.416;37.840;2023-04-03T07:41:28;13.35;;;6.47;;
45909;SDS011;31622;55.416;37.840;2023-04-03T07:43:55;10.95;;;6.43;;
45909;SDS011;31622;55.416;37.840;2023-04-03T07:46:22;12.52;;;6.35;;
45909;SDS011;31622;55.416;37.840;2023-04-03T07:48:48;12.55;;;6.18;;
45909;SDS011;31622;55.416;37.840;2023-04-03T07:51:14;13.93;;;6.25;;
45909;SDS011;31622;55.416;37.840;2023-04-03T07:53:40;15.25;;;6.18;;
45909;SDS011;31622;55.416;37.840;2023-04-03T07:56:06;13.05;;;6.82;;
45909;SDS011;31622;55.416;37.840;2023-04-03T07:58:32;12.25;;;5.93;;
45909;SDS011;31622;55.416;37.840;2023-04-03T08:00:58;12.60;;;6.38;;
45909;SDS011;31622;55.416;37.840;2023-04-03T08:03:24;12.43;;;5.85;;
45909;SDS011;31622;55.416;37.840;2023-04-03T08:05:50;13.52;;;5.95;;
45909;SDS011;31622;55.416;37.840;2023-04-03T08:08:17;10.23;;;5.55;;
45909;SDS011;31622;55.416;37.840;2023-04-03T08:10:47;12.07;;;5.40;;
45909;SDS011;31622;55.416;37.840;2023-04-03T08:13:20;10.88;;;4.93;;
45909;SDS011;31622;55.416;37.840;2023-04-03T08:15:46;16.77;;;5.32;;
45909;SDS011;31622;55.416;37.840;2023-04-03T08:18:13;11.82;;;5.45;;
45909;SDS011;31622;55.416;37.840;2023-04-03T08:20:39;14.13;;;5.68;;
45909;SDS011;31622;55.416;37.840;2023-04-03T08:23:06;12.10;;;5.65;;
45909;SDS011;31622;55.416;37.840;2023-04-03T08:25:33;9.60;;;5.03;;
45909;SDS011;31622;55.416;37.840;2023-04-03T08:27:59;12.60;;;5.53;;
45909;SDS011;31622;55.416;37.840;2023-04-03T08:30:27;15.85;;;5.75;;
45909;SDS011;31622;55.416;37.840;2023-04-03T08:32:52;33.47;;;5.95;;
45909;SDS011;31622;55.416;37.840;2023-04-03T08:35:18;32.53;;;8.30;;
45909;SDS011;31622;55.416;37.840;2023-04-03T08:37:45;24.98;;;6.38;;
45909;SDS011;31622;55.416;37.840;2023-04-03T08:40:15;30.50;;;6.82;;
45909;SDS011;31622;55.416;37.840;2023-04-03T08:45:42;16.80;;;6.60;;
45909;SDS011;31622;55.416;37.840;2023-04-03T08:48:23;14.30;;;5.88;;
45909;SDS011;31622;55.416;37.840;2023-04-03T08:51:16;24.92;;;5.50;;
45909;SDS011;31622;55.416;37.840;2023-04-03T08:54:19;18.80;;;6.68;;
45909;SDS011;31622;55.416;37.840;2023-04-03T08:56:41;17.70;;;6.07;;
45909;SDS011;31622;55.416;37.840;2023-04-03T08:59:10;16.30;;;5.50;;
45909;SDS011;31622;55.416;37.840;2023-04-03T09:04:09;18.35;;;6.28;;
45909;SDS011;31622;55.416;37.840;2023-04-03T09:06:39;16.63;;;6.32;;
45909;SDS011;31622;55.416;37.840;2023-04-03T09:16:49;18.40;;;6.30;;
45909;SDS011;31622;55.416;37.840;2023-04-03T09:22:03;20.60;;;7.82;;
45909;SDS011;31622;55.416;37.840;2023-04-03T09:24:39;22.58;;;6.90;;
45909;SDS011;31622;55.416;37.840;2023-04-03T09:27:06;14.55;;;5.88;;
45909;SDS011;31622;55.416;37.840;2023-04-03T09:29:35;15.80;;;5.50;;
45909;SDS011;31622;55.416;37.840;2023-04-03T09:32:12;13.77;;;5.07;;
45909;SDS011;31622;55.416;37.840;2023-04-03T09:35:01;12.82;;;5.30;;
45909;SDS011;31622;55.416;37.840;2023-04-03T09:37:40;10.00;;;5.13;;
45909;SDS011;31622;55.416;37.840;2023-04-03T09:40:41;9.13;;;4.53;;
45909;SDS011;31622;55.416;37.840;2023-04-03T09:43:37;15.85;;;5.00;;
45909;SDS011;31622;55.416;37.840;2023-04-03T09:46:16;30.23;;;11.00;;
45909;SDS011;31622;55.416;37.840;2023-04-03T09:48:58;27.20;;;9.25;;
45909;SDS011;31622;55.416;37.840;2023-04-03T09:51:28;28.90;;;10.85;;
45909;SDS011;31622;55.416;37.840;2023-04-03T09:53:56;27.90;;;10.48;;
45909;SDS011;31622;55.416;37.840;2023-04-03T09:56:24;27.58;;;10.90;;
45909;SDS011;31622;55.416;37.840;2023-04-03T10:06:34;20.38;;;8.02;;
45909;SDS011;31622;55.416;37.840;2023-04-03T10:09:27;20.38;;;7.95;;
45909;SDS011;31622;55.416;37.840;2023-04-03T10:12:05;24.15;;;8.57;;
45909;SDS011;31622;55.416;37.840;2023-04-03T10:14:35;20.90;;;7.65;;
45909;SDS011;31622;55.416;37.840;2023-04-03T10:17:03;15.30;;;7.95;;
45909;SDS011;31622;55.416;37.840;2023-04-03T10:19:59;15.45;;;6.88;;
45909;SDS011;31622;55.416;37.840;2023-04-03T10:28:01;20.92;;;6.43;;
45909;SDS011;31622;55.416;37.840;2023-04-03T10:36:08;14.40;;;5.95;;
45909;SDS011;31622;55.416;37.840;2023-04-03T10:41:29;13.43;;;5.30;;
45909;SDS011;31622;55.416;37.840;2023-04-03T10:46:53;12.50;;;4.82;;
45909;SDS011;31622;55.416;37.840;2023-04-03T10:52:22;10.65;;;5.38;;
45909;SDS011;31622;55.416;37.840;2023-04-03T10:57:59;11.52;;;5.10;;
45909;SDS011;31622;55.416;37.840;2023-04-03T11:03:02;8.80;;;4.88;;
45909;SDS011;31622;55.416;37.840;2023-04-03T11:05:35;11.73;;;5.43;;
45909;SDS011;31622;55.416;37.840;2023-04-03T11:08:11;12.98;;;5.43;;
45909;SDS011;31622;55.416;37.840;2023-04-03T11:10:40;11.25;;;5.63;;
45909;SDS011;31622;55.416;37.840;2023-04-03T11:13:12;9.57;;;4.55;;
45909;SDS011;31622;55.416;37.840;2023-04-03T11:15:44;9.43;;;4.80;;
45909;SDS011;31622;55.416;37.840;2023-04-03T11:18:17;8.77;;;4.38;;
45909;SDS011;31622;55.416;37.840;2023-04-03T11:23:55;10.82;;;4.95;;
45909;SDS011;31622;55.416;37.840;2023-04-03T11:26:24;9.35;;;4.30;;
45909;SDS011;31622;55.416;37.840;2023-04-03T11:28:58;10.77;;;3.83;;
45909;SDS011;31622;55.416;37.840;2023-04-03T11:36:53;9.32;;;4.32;;
45909;SDS011;31622;55.416;37.840;2023-04-03T11:39:26;8.07;;;3.80;;
45909;SDS011;31622;55.416;37.840;2023-04-03T11:41:54;7.35;;;3.65;;
45909;SDS011;31622;55.416;37.840;2023-04-03T11:44:32;7.65;;;3.80;;
45909;SDS011;31622;55.416;37.840;2023-04-03T11:47:05;7.05;;;3.30;;
45909;SDS011;31622;55.416;37.840;2023-04-03T12:16:52;6.97;;;3.58;;
45909;SDS011;31622;55.416;37.840;2023-04-03T12:19:03;7.43;;;3.70;;
45909;SDS011;31622;55.416;37.840;2023-04-03T12:32:05;7.00;;;2.90;;
45909;SDS011;31622;55.416;37.840;2023-04-03T12:34:43;7.43;;;2.97;;
45909;SDS011;31622;55.416;37.840;2023-04-03T12:40:21;4.57;;;2.55;;
45909;SDS011;31622;55.416;37.840;2023-04-03T12:43:27;6.47;;;2.65;;
45909;SDS011;31622;55.416;37.840;2023-04-03T12:46:18;4.80;;;2.58;;
45909;SDS011;31622;55.416;37.840;2023-04-03T12:48:50;5.38;;;2.65;;
45909;SDS011;31622;55.416;37.840;2023-04-03T12:51:37;7.55;;;2.67;;
45909;SDS011;31622;55.416;37.840;2023-04-03T12:54:15;5.75;;;2.78;;
45909;SDS011;31622;55.416;37.840;2023-04-03T12:56:43;5.97;;;2.55;;
45909;SDS011;31622;55.416;37.840;2023-04-03T12:59:18;4.97;;;2.60;;
45909;SDS011;31622;55.416;37.840;2023-04-03T13:01:58;6.55;;;2.80;;
45909;SDS011;31622;55.416;37.840;2023-04-03T13:04:26;6.47;;;2.35;;
45909;SDS011;31622;55.416;37.840;2023-04-03T13:06:52;4.88;;;2.40;;
45909;SDS011;31622;55.416;37.840;2023-04-03T13:09:19;4.70;;;2.80;;
45909;SDS011;31622;55.416;37.840;2023-04-03T13:11:47;6.32;;;2.95;;
45909;SDS011;31622;55.416;37.840;2023-04-03T13:14:16;3.92;;;2.50;;
45909;SDS011;31622;55.416;37.840;2023-04-03T13:16:56;4.43;;;2.40;;
45909;SDS011;31622;55.416;37.840;2023-04-03T13:19:26;4.68;;;2.60;;
45909;SDS011;31622;55.416;37.840;2023-04-03T13:22:03;4.65;;;2.72;;
45909;SDS011;31622;55.416;37.840;2023-04-03T13:24:36;6.53;;;3.00;;
45909;SDS011;31622;55.416;37.840;2023-04-03T13:27:03;7.00;;;3.13;;
45909;SDS011;31622;55.416;37.840;2023-04-03T13:29:32;6.10;;;2.80;;
45909;SDS011;31622;55.416;37.840;2023-04-03T13:31:59;5.28;;;2.45;;
45909;SDS011;31622;55.416;37.840;2023-04-03T13:34:35;6.00;;;2.75;;
45909;SDS011;31622;55.416;37.840;2023-04-03T13:37:03;4.72;;;2.40;;
45909;SDS011;31622;55.416;37.840;2023-04-03T13:39:30;5.72;;;2.60;;
45909;SDS011;31622;55.416;37.840;2023-04-03T13:42:02;5.88;;;2.40;;
45909;SDS011;31622;55.416;37.840;2023-04-03T13:44:40;4.60;;;2.47;;
45909;SDS011;31622;55.416;37.840;2023-04-03T13:49:58;8.15;;;2.42;;
45909;SDS011;31622;55.416;37.840;2023-04-03T13:52:26;5.95;;;2.35;;
45909;SDS011;31622;55.416;37.840;2023-04-03T13:55:01;6.22;;;2.65;;
45909;SDS011;31622;55.416;37.840;2023-04-03T13:57:29;4.35;;;2.45;;
45909;SDS011;31622;55.416;37.840;2023-04-03T13:59:55;4.95;;;2.40;;
45909;SDS011;31622;55.416;37.840;2023-04-03T14:02:26;5.93;;;2.45;;
45909;SDS011;31622;55.416;37.840;2023-04-03T14:04:56;5.60;;;2.88;;
45909;SDS011;31622;55.416;37.840;2023-04-03T14:07:27;4.63;;;2.60;;
45909;SDS011;31622;55.416;37.840;2023-04-03T14:09:54;6.05;;;2.33;;
45909;SDS011;31622;55.416;37.840;2023-04-03T14:12:33;4.70;;;2.60;;
45909;SDS011;31622;55.416;37.840;2023-04-03T14:15:05;5.72;;;2.45;;
45909;SDS011;31622;55.416;37.840;2023-04-03T14:17:40;3.50;;;2.28;;
45909;SDS011;31622;55.416;37.840;2023-04-03T14:20:10;3.83;;;2.58;;
45909;SDS011;31622;55.416;37.840;2023-04-03T14:22:40;6.35;;;3.20;;
45909;SDS011;31622;55.416;37.840;2023-04-03T14:25:06;8.43;;;2.47;;
45909;SDS011;31622;55.416;37.840;2023-04-03T14:27:39;6.50;;;3.00;;
45909;SDS011;31622;55.416;37.840;2023-04-03T14:30:09;6.05;;;2.92;;
45909;SDS011;31622;55.416;37.840;2023-04-03T14:32:39;4.32;;;2.55;;
45909;SDS011;31622;55.416;37.840;2023-04-03T14:35:05;5.43;;;2.22;;
45909;SDS011;31622;55.416;37.840;2023-04-03T14:37:32;4.70;;;2.40;;
45909;SDS011;31622;55.416;37.840;2023-04-03T14:39:59;5.15;;;2.47;;
45909;SDS011;31622;55.416;37.840;2023-04-03T14:42:27;5.93;;;2.40;;
45909;SDS011;31622;55.416;37.840;2023-04-03T14:44:56;5.88;;;2.53;;
45909;SDS011;31622;55.416;37.840;2023-04-03T14:47:24;3.72;;;2.22;;
45909;SDS011;31622;55.416;37.840;2023-04-03T14:49:53;5.60;;;2.80;;
45909;SDS011;31622;55.416;37.840;2023-04-03T14:52:20;7.22;;;3.05;;
45909;SDS011;31622;55.416;37.840;2023-04-03T14:54:48;4.28;;;2.20;;
45909;SDS011;31622;55.416;37.840;2023-04-03T14:57:15;5.53;;;2.63;;
45909;SDS011;31622;55.416;37.840;2023-04-03T14:59:41;3.75;;;2.30;;
45909;SDS011;31622;55.416;37.840;2023-04-03T15:02:11;5.10;;;2.90;;
45909;SDS011;31622;55.416;37.840;2023-04-03T15:04:47;5.22;;;2.90;;
45909;SDS011;31622;55.416;37.840;2023-04-03T15:07:13;5.72;;;2.53;;
45909;SDS011;31622;55.416;37.840;2023-04-03T15:09:39;4.47;;;2.70;;
45909;SDS011;31622;55.416;37.840;2023-04-03T15:12:04;4.97;;;2.72;;
45909;SDS011;31622;55.416;37.840;2023-04-03T15:14:30;4.63;;;2.60;;
45909;SDS011;31622;55.416;37.840;2023-04-03T15:16:56;5.40;;;2.80;;
45909;SDS011;31622;55.416;37.840;2023-04-03T15:19:23;7.03;;;2.67;;
45909;SDS011;31622;55.416;37.840;2023-04-03T15:21:48;16.75;;;4.80;;
45909;SDS011;31622;55.416;37.840;2023-04-03T15:24:14;14.38;;;5.30;;
45909;SDS011;31622;55.416;37.840;2023-04-03T15:26:40;14.20;;;4.10;;
45909;SDS011;31622;55.416;37.840;2023-04-03T15:29:06;11.13;;;3.70;;
45909;SDS011;31622;55.416;37.840;2023-04-03T15:31:32;9.80;;;3.08;;
45909;SDS011;31622;55.416;37.840;2023-04-03T15:33:58;9.35;;;3.22;;
45909;SDS011;31622;55.416;37.840;2023-04-03T15:36:24;9.45;;;3.30;;
45909;SDS011;31622;55.416;37.840;2023-04-03T15:38:49;10.80;;;3.80;;
45909;SDS011;31622;55.416;37.840;2023-04-03T15:41:15;7.18;;;3.30;;
45909;SDS011;31622;55.416;37.840;2023-04-03T15:43:41;8.75;;;3.20;;
45909;SDS011;31622;55.416;37.840;2023-04-03T15:46:07;6.35;;;3.20;;
45909;SDS011;31622;55.416;37.840;2023-04-03T15:48:33;7.28;;;4.22;;
45909;SDS011;31622;55.416;37.840;2023-04-03T15:50:59;8.52;;;3.38;;
45909;SDS011;31622;55.416;37.840;2023-04-03T15:53:25;5.57;;;3.08;;
45909;SDS011;31622;55.416;37.840;2023-04-03T15:55:51;11.75;;;3.30;;
45909;SDS011;31622;55.416;37.840;2023-04-03T15:58:17;5.38;;;3.03;;
45909;SDS011;31622;55.416;37.840;2023-04-03T16:00:42;4.93;;;2.60;;
45909;SDS011;31622;55.416;37.840;2023-04-03T16:03:10;5.47;;;3.00;;
45909;SDS011;31622;55.416;37.840;2023-04-03T16:05:37;6.55;;;2.70;;
45909;SDS011;31622;55.416;37.840;2023-04-03T16:08:03;8.13;;;3.17;;
45909;SDS011;31622;55.416;37.840;2023-04-03T16:10:30;6.03;;;2.78;;
45909;SDS011;31622;55.416;37.840;2023-04-03T16:12:56;7.07;;;3.00;;
45909;SDS011;31622;55.416;37.840;2023-04-03T16:15:22;6.80;;;3.03;;
45909;SDS011;31622;55.416;37.840;2023-04-03T16:17:48;5.35;;;2.72;;
45909;SDS011;31622;55.416;37.840;2023-04-03T16:20:14;6.20;;;2.72;;
45909;SDS011;31622;55.416;37.840;2023-04-03T16:22:40;7.47;;;3.67;;
45909;SDS011;31622;55.416;37.840;2023-04-03T16:25:07;6.63;;;3.40;;